Time;durP1;ratioP1;P1;durP2;ratioP2;P2;SDS_P1;SDS_P2;PMS_P1;PMS_P2;Temp;Humidity;BMP_temperature;BMP_pressure;BME280_temperature;BME280_humidity;BME280_pressure;Samples;Min_cycle;Max_cycle;Signal;HPM_P1;HPM_P2
2022/01/04 00:08:13;;;;;;;8.47;3.33;;;7.50;99.90;;;;;;20655019;28;20053;-76
2022/01/04 00:18:14;;;;;;;7.70;3.08;;;7.30;99.90;;;;;;20667157;28;20042;-75
2022/01/04 00:28:14;;;;;;;6.53;2.77;;;7.30;99.90;;;;;;20666609;28;20396;-76
2022/01/04 00:38:16;;;;;;;5.83;2.57;;;7.30;99.90;;;;;;20665768;28;20022;-76
2022/01/04 00:58:20;;;;;;;6.30;3.30;;;7.20;99.90;;;;;;20645908;28;20096;-76
2022/01/04 01:08:21;;;;;;;9.77;4.37;;;7.30;99.90;;;;;;20630413;28;20125;-75
2022/01/04 01:18:22;;;;;;;9.93;5.83;;;7.30;99.90;;;;;;20663014;28;20547;-76
2022/01/04 01:28:23;;;;;;;10.67;3.90;;;7.30;99.90;;;;;;20662508;28;20421;-75
2022/01/04 01:38:25;;;;;;;13.32;3.92;;;7.20;99.90;;;;;;20662101;28;20085;-76
2022/01/04 01:48:26;;;;;;;10.45;4.00;;;7.00;99.90;;;;;;20661688;28;20074;-75
2022/01/04 01:58:27;;;;;;;5.83;3.90;;;7.00;99.90;;;;;;20661424;28;20037;-76
2022/01/04 02:08:28;;;;;;;8.00;4.90;;;7.00;99.90;;;;;;20665135;28;20437;-75
2022/01/04 02:18:29;;;;;;;9.35;4.65;;;7.10;99.90;;;;;;20676570;28;20556;-76
2022/01/04 02:28:31;;;;;;;11.90;4.47;;;7.20;99.90;;;;;;20675775;28;20035;-76
2022/01/04 02:38:33;;;;;;;14.35;4.38;;;7.10;99.90;;;;;;20675054;28;20093;-76
2022/01/04 02:48:43;;;;;;;11.80;5.45;;;7.20;99.90;;;;;;20674333;28;20532;-75
2022/01/04 02:58:44;;;;;;;11.07;6.35;;;7.10;99.90;;;;;;20673509;28;20204;-75
2022/01/04 03:08:44;;;;;;;6.33;3.73;;;7.20;99.90;;;;;;20672982;28;20050;-76
2022/01/04 03:28:59;;;;;;;9.32;3.80;;;7.60;99.90;;;;;;20671396;28;20034;-76
2022/01/04 03:39:04;;;;;;;5.68;1.92;;;8.30;99.90;;;;;;20653320;28;20452;-76
2022/01/04 03:49:05;;;;;;;2.85;1.02;;;9.40;99.90;;;;;;20636680;28;20038;-77
2022/01/04 03:59:06;;;;;;;4.13;0.90;;;10.00;99.90;;;;;;20651501;28;20110;-76
2022/01/04 04:09:07;;;;;;;1.63;0.70;;;10.20;99.90;;;;;;20668249;28;20030;-76
2022/01/04 04:19:07;;;;;;;3.00;0.90;;;9.70;99.90;;;;;;20667391;28;20036;-76
2022/01/04 04:29:09;;;;;;;1.03;0.70;;;9.80;99.90;;;;;;20666759;28;20055;-76
2022/01/04 04:39:10;;;;;;;;;;;9.80;99.90;;;;;;20657785;28;20037;-78
2022/01/04 04:49:11;;;;;;;7.90;4.20;;;9.10;99.90;;;;;;20680643;28;19909;-79
2022/01/04 04:59:12;;;;;;;7.53;3.40;;;8.70;99.90;;;;;;20701355;28;20336;-78
2022/01/04 05:09:12;;;;;;;6.67;3.70;;;8.80;99.90;;;;;;20682820;28;20027;-77
2022/01/04 05:19:13;;;;;;;4.20;2.30;;;9.10;99.90;;;;;;20698857;28;20056;-79
2022/01/04 05:29:14;;;;;;;9.20;5.30;;;9.00;99.90;;;;;;20695564;28;20381;-79
2022/01/04 05:39:15;;;;;;;10.30;3.97;;;9.00;99.90;;;;;;20678934;28;20408;-79
2022/01/04 05:49:16;;;;;;;8.27;4.40;;;8.80;99.90;;;;;;20723243;28;20048;-79
2022/01/04 05:59:18;;;;;;;2.90;1.93;;;8.60;99.90;;;;;;20723357;28;20085;-80
2022/01/04 06:09:24;;;;;;;;;;;8.90;99.90;;;;;;20722931;28;20034;-80
2022/01/04 06:19:25;;;;;;;7.55;1.75;;;9.10;99.90;;;;;;20718817;28;19914;-79
2022/01/04 06:29:27;;;;;;;3.33;1.20;;;9.20;99.90;;;;;;20609377;28;20537;-75
2022/01/04 06:39:28;;;;;;;3.67;1.60;;;9.20;99.90;;;;;;20630574;28;20371;-76
2022/01/04 06:49:29;;;;;;;2.57;1.90;;;9.10;99.90;;;;;;20634918;28;20038;-76
2022/01/04 06:59:30;;;;;;;2.70;1.90;;;8.90;99.90;;;;;;20633357;28;20482;-76
2022/01/04 07:09:31;;;;;;;2.80;1.57;;;8.90;99.90;;;;;;20575785;28;20049;-76
2022/01/04 07:19:31;;;;;;;2.20;1.50;;;9.30;99.90;;;;;;20592543;28;20039;-77
2022/01/04 07:29:32;;;;;;;2.53;1.17;;;9.20;99.90;;;;;;20592201;28;20393;-76
2022/01/04 07:39:33;;;;;;;4.10;0.97;;;9.40;99.90;;;;;;20592409;28;20035;-77
2022/01/04 07:49:34;;;;;;;0.63;0.47;;;9.80;99.90;;;;;;20573812;28;20445;-76
2022/01/04 07:59:35;;;;;;;3.90;0.93;;;10.60;99.90;;;;;;20589494;28;20525;-76
2022/01/04 08:09:36;;;;;;;0.73;0.60;;;11.00;99.90;;;;;;20588179;28;20161;-76
2022/01/04 08:19:36;;;;;;;1.63;0.90;;;11.20;99.90;;;;;;20605343;28;20564;-76
2022/01/04 08:29:37;;;;;;;1.67;0.90;;;11.80;99.90;;;;;;20656284;28;20568;-76
2022/01/04 08:39:38;;;;;;;1.57;0.70;;;12.20;99.90;;;;;;20673401;28;20037;-75
2022/01/04 08:49:39;;;;;;;1.30;0.80;;;12.60;99.90;;;;;;20678842;28;20042;-74
2022/01/04 08:59:40;;;;;;;1.77;0.73;;;12.70;99.90;;;;;;20627115;28;20072;-75
2022/01/04 09:09:41;;;;;;;1.23;0.90;;;12.90;99.90;;;;;;20645583;28;20085;-76
2022/01/04 09:19:42;;;;;;;2.73;0.90;;;13.30;99.90;;;;;;20643501;28;20046;-76
2022/01/04 09:29:43;;;;;;;1.10;0.70;;;13.70;99.90;;;;;;20611002;28;20065;-76
2022/01/04 09:39:45;;;;;;;1.63;0.90;;;13.90;99.90;;;;;;20643137;28;20085;-75
2022/01/04 09:49:46;;;;;;;2.30;1.17;;;14.30;99.90;;;;;;20643510;28;20493;-76
2022/01/04 09:59:49;;;;;;;1.30;1.00;;;14.00;99.90;;;;;;20642644;28;20404;-75
2022/01/04 10:09:52;;;;;;;1.05;0.95;;;14.20;99.90;;;;;;20642193;28;20066;-75
2022/01/04 10:19:55;;;;;;;1.60;1.00;;;14.60;99.90;;;;;;20624585;28;20084;-75
2022/01/04 10:30:30;;;;;;;2.20;1.20;;;15.30;99.90;;;;;;20628397;28;20057;-75
2022/01/04 10:40:31;;;;;;;1.77;1.00;;;16.10;99.90;;;;;;20639102;28;20125;-76
2022/01/04 10:50:34;;;;;;;2.20;0.90;;;16.60;99.90;;;;;;20655301;28;20557;-76
2022/01/04 11:00:35;;;;;;;2.47;1.20;;;16.90;99.90;;;;;;20655451;28;20508;-75
2022/01/04 11:10:36;;;;;;;5.03;1.47;;;17.30;99.90;;;;;;20654734;28;20030;-77
2022/01/04 11:20:39;;;;;;;2.27;1.20;;;16.90;99.90;;;;;;20617892;28;20033;-75
2022/01/04 11:31:16;;;;;;;4.32;1.20;;;16.50;99.90;;;;;;20653199;28;20042;-75
2022/01/04 11:41:45;;;;;;;1.95;1.10;;;16.40;99.90;;;;;;20651111;28;20117;-75
2022/01/04 11:51:46;;;;;;;3.03;0.88;;;16.20;99.90;;;;;;20644352;28;20498;-75
2022/01/04 12:01:47;;;;;;;3.03;1.27;;;16.20;99.90;;;;;;20586486;28;20082;-75
2022/01/04 12:11:48;;;;;;;3.23;1.40;;;15.80;99.90;;;;;;20667735;28;20030;-76
2022/01/04 12:22:02;;;;;;;2.53;1.30;;;15.20;99.90;;;;;;20666365;28;20121;-76
2022/01/04 12:32:07;;;;;;;4.70;1.60;;;14.60;99.90;;;;;;20665292;28;20034;-75
2022/01/04 12:42:11;;;;;;;2.22;1.40;;;14.00;99.90;;;;;;20665418;28;20513;-76
2022/01/04 12:52:17;;;;;;;8.60;1.70;;;13.70;99.90;;;;;;20664257;28;20026;-74
2022/01/04 13:02:29;;;;;;;3.70;1.15;;;13.40;99.90;;;;;;20630970;28;20382;-75
2022/01/04 13:12:40;;;;;;;4.90;1.75;;;13.30;99.90;;;;;;20663818;28;20121;-75
2022/01/04 13:22:41;;;;;;;3.55;1.50;;;13.30;99.90;;;;;;20659337;28;20174;-75
2022/01/04 13:32:45;;;;;;;5.77;1.60;;;13.20;99.90;;;;;;20640216;28;20058;-76
2022/01/04 13:42:48;;;;;;;2.45;1.27;;;13.10;99.90;;;;;;20588947;28;20030;-75
2022/01/04 13:53:04;;;;;;;1.92;1.23;;;13.20;99.90;;;;;;20641982;28;20032;-75
2022/01/04 14:03:30;;;;;;;3.10;1.23;;;13.20;99.90;;;;;;20633815;28;20039;-75
2022/01/04 14:13:36;;;;;;;3.30;1.35;;;13.10;99.90;;;;;;20659931;28;20038;-74
2022/01/04 14:23:38;;;;;;;4.10;1.30;;;13.00;99.90;;;;;;20659234;28;20034;-74
2022/01/04 14:33:39;;;;;;;3.77;1.90;;;12.90;99.90;;;;;;20676142;28;20041;-75
2022/01/04 14:43:39;;;;;;;3.17;1.40;;;12.60;99.90;;;;;;20675184;28;20293;-75
2022/01/04 14:53:40;;;;;;;12.17;1.90;;;12.40;99.90;;;;;;20656899;28;20034;-74
2022/01/04 15:03:41;;;;;;;10.20;2.67;;;12.50;99.90;;;;;;20673456;28;20030;-75
2022/01/04 15:13:42;;;;;;;4.97;1.80;;;12.30;99.90;;;;;;20672321;28;20486;-76
2022/01/04 15:23:44;;;;;;;3.57;1.70;;;12.00;99.90;;;;;;20670383;28;20113;-76
2022/01/04 15:33:45;;;;;;;10.75;2.10;;;12.00;99.90;;;;;;20654302;28;20042;-76
2022/01/04 15:43:46;;;;;;;3.63;2.10;;;11.80;99.90;;;;;;20671559;28;20417;-77
2022/01/04 15:53:48;;;;;;;5.70;2.53;;;11.70;99.90;;;;;;20670681;28;20034;-76
2022/01/04 16:03:49;;;;;;;7.05;1.77;;;11.60;99.90;;;;;;20671842;28;20041;-77
2022/01/04 16:13:50;;;;;;;15.47;7.47;;;11.60;99.90;;;;;;20671593;28;20035;-76
2022/01/04 16:23:50;;;;;;;16.80;7.30;;;11.60;99.90;;;;;;20655247;28;20038;-76
2022/01/04 16:33:51;;;;;;;11.33;3.83;;;11.40;99.90;;;;;;20666759;28;20040;-76
2022/01/04 16:43:52;;;;;;;9.37;3.73;;;11.40;99.90;;;;;;20665536;28;20030;-76
2022/01/04 16:53:54;;;;;;;9.33;2.40;;;11.30;99.90;;;;;;20665106;28;20037;-76
2022/01/04 17:03:54;;;;;;;7.78;3.63;;;11.30;99.90;;;;;;20657181;28;20439;-77
2022/01/04 17:24:15;;;;;;;10.57;3.92;;;11.10;99.90;;;;;;20663147;28;20030;-76
2022/01/04 17:34:16;;;;;;;10.07;3.47;;;11.00;99.90;;;;;;20660066;28;20368;-76
2022/01/04 17:44:17;;;;;;;10.03;5.67;;;10.90;99.90;;;;;;20661553;28;20058;-76
2022/01/04 17:54:19;;;;;;;10.55;5.30;;;10.70;99.90;;;;;;20661588;28;20022;-76
2022/01/04 18:04:20;;;;;;;8.50;3.95;;;10.60;99.90;;;;;;20646386;28;20446;-76
2022/01/04 18:14:20;;;;;;;4.60;2.67;;;10.50;99.90;;;;;;20661205;28;20033;-76
2022/01/04 18:24:21;;;;;;;4.43;2.40;;;10.40;99.90;;;;;;20646419;28;20082;-77
2022/01/04 18:34:22;;;;;;;2.63;1.57;;;10.30;99.90;;;;;;20662702;28;20394;-76
2022/01/04 18:44:23;;;;;;;1.40;0.90;;;10.20;99.90;;;;;;20659517;28;20529;-74
2022/01/04 18:54:24;;;;;;;1.23;1.10;;;10.00;99.90;;;;;;20668889;28;20150;-75
2022/01/04 19:04:25;;;;;;;1.10;0.70;;;10.00;99.90;;;;;;20653355;28;20030;-75
2022/01/04 19:14:26;;;;;;;1.30;0.80;;;9.80;99.90;;;;;;20672870;28;20030;-76
2022/01/04 19:24:27;;;;;;;0.70;0.70;;;9.40;99.90;;;;;;20672106;28;20166;-75
2022/01/04 19:44:47;;;;;;;4.55;2.30;;;8.80;99.90;;;;;;20649987;28;20031;-75
2022/01/04 19:54:47;;;;;;;1.57;1.10;;;8.60;99.90;;;;;;20652879;28;20072;-75
2022/01/04 20:04:49;;;;;;;3.77;1.70;;;8.30;99.90;;;;;;20749309;28;20083;-75
2022/01/04 20:14:50;;;;;;;5.38;3.25;;;8.20;99.90;;;;;;20749020;28;20057;-75
2022/01/04 20:24:52;;;;;;;4.10;2.70;;;8.00;99.90;;;;;;20636125;28;20041;-75
2022/01/04 20:34:54;;;;;;;1.65;1.35;;;7.80;99.90;;;;;;20666936;28;20273;-76
2022/01/04 20:44:55;;;;;;;3.42;2.00;;;7.70;99.90;;;;;;20665984;28;20057;-75
2022/01/04 20:54:56;;;;;;;2.13;1.30;;;7.60;99.90;;;;;;20664602;28;20093;-75
2022/01/04 21:04:57;;;;;;;1.17;0.80;;;7.60;99.90;;;;;;20635703;28;20494;-75
2022/01/04 21:14:58;;;;;;;4.90;1.97;;;7.60;99.90;;;;;;20634783;28;20034;-75
2022/01/04 21:24:58;;;;;;;2.03;1.10;;;7.50;99.90;;;;;;20660678;28;20058;-75
2022/01/04 21:34:59;;;;;;;2.90;1.07;;;7.30;99.90;;;;;;20662779;28;20049;-75
2022/01/04 21:45:00;;;;;;;2.80;1.67;;;7.10;99.90;;;;;;20662353;28;20023;-75
2022/01/04 21:55:03;;;;;;;2.83;1.73;;;6.90;99.90;;;;;;20661675;28;20045;-75
2022/01/04 22:05:05;;;;;;;0.40;0.40;;;6.70;99.90;;;;;;20651635;28;20061;-75
2022/01/04 22:15:06;;;;;;;1.25;0.40;;;6.60;99.90;;;;;;20639697;28;20798;-75
2022/01/04 22:25:07;;;;;;;1.35;0.70;;;6.50;99.90;;;;;;20675608;28;20523;-76
2022/01/04 22:35:08;;;;;;;2.17;0.90;;;6.20;99.90;;;;;;20641661;28;20542;-75
2022/01/04 22:45:09;;;;;;;0.35;0.35;;;5.90;99.90;;;;;;20673681;28;20111;-75
2022/01/04 22:55:10;;;;;;;;;;;5.40;99.90;;;;;;20668800;28;20037;-76
2022/01/04 23:05:11;;;;;;;0.40;0.40;;;5.20;99.90;;;;;;20618531;28;19914;-75
2022/01/04 23:15:12;;;;;;;;;;;5.10;99.90;;;;;;20651574;28;20034;-75
2022/01/04 23:25:13;;;;;;;10.82;3.05;;;4.80;99.90;;;;;;20651984;28;19914;-75
2022/01/04 23:35:17;;;;;;;;;;;4.60;99.90;;;;;;20616662;28;20038;-74
2022/01/04 23:45:18;;;;;;;4.55;2.58;;;4.50;99.90;;;;;;20650288;28;19913;-75
2022/01/04 23:55:19;;;;;;;;;;;4.30;99.90;;;;;;20649730;28;20048;-75
